createdAt,value
2018-01-06T00:00:48.899Z,8.87
2018-01-06T00:01:48.930Z,8.86
2018-01-06T00:02:48.957Z,8.96
2018-01-06T00:03:48.990Z,8.96
2018-01-06T00:04:49.022Z,9.01
2018-01-06T00:05:49.047Z,8.87
2018-01-06T00:06:49.078Z,8.89
2018-01-06T00:07:49.108Z,8.87
2018-01-06T00:08:49.127Z,8.92
2018-01-06T00:09:49.172Z,8.96
2018-01-06T00:10:49.201Z,8.92
2018-01-06T00:11:49.227Z,8.87
2018-01-06T00:12:49.262Z,8.87
2018-01-06T00:13:49.291Z,8.83
2018-01-06T00:14:49.320Z,8.94
2018-01-06T00:15:49.348Z,8.87
2018-01-06T00:16:49.368Z,8.81
2018-01-06T00:17:49.410Z,8.79
2018-01-06T00:18:49.439Z,8.79
2018-01-06T00:19:49.459Z,8.86
2018-01-06T00:20:49.502Z,8.81
2018-01-06T00:21:49.530Z,8.81
2018-01-06T00:22:49.561Z,8.76
2018-01-06T00:23:49.594Z,8.80
2018-01-06T00:24:49.621Z,8.80
2018-01-06T00:25:49.651Z,8.76
2018-01-06T00:26:49.680Z,8.74
2018-01-06T00:27:49.713Z,8.94
2018-01-06T00:28:49.741Z,8.77
2018-01-06T00:29:49.772Z,8.80
2018-01-06T00:30:49.801Z,8.76
2018-01-06T00:31:49.834Z,8.86
2018-01-06T00:32:49.861Z,8.81
2018-01-06T00:33:49.891Z,8.86
2018-01-06T00:34:49.920Z,8.92
2018-01-06T00:35:49.952Z,8.81
2018-01-06T00:36:49.970Z,8.91
2018-01-06T00:37:50.013Z,8.91
2018-01-06T00:38:50.030Z,8.86
2018-01-06T00:39:50.060Z,8.84
2018-01-06T00:40:50.101Z,8.89
2018-01-06T00:41:50.120Z,8.89
2018-01-06T00:42:50.152Z,8.86
2018-01-06T00:43:50.190Z,8.84
2018-01-06T00:44:50.210Z,8.87
2018-01-06T00:45:50.253Z,8.86
2018-01-06T00:46:50.287Z,8.84
2018-01-06T00:47:50.311Z,8.86
2018-01-06T00:48:50.330Z,8.86
2018-01-06T00:49:50.372Z,8.87
2018-01-06T00:50:50.389Z,8.89
2018-01-06T00:51:50.422Z,8.87
2018-01-06T00:52:50.449Z,8.80
2018-01-06T00:53:50.491Z,8.84
2018-01-06T00:54:50.522Z,8.81
2018-01-06T00:55:50.538Z,8.79
2018-01-06T00:56:50.569Z,8.79
2018-01-06T00:57:50.613Z,8.81
2018-01-06T00:58:50.629Z,8.73
2018-01-06T00:59:50.660Z,8.77
2018-01-06T01:00:50.690Z,8.73
2018-01-06T01:01:50.753Z,8.86
2018-01-06T01:02:50.748Z,8.65
2018-01-06T01:03:50.780Z,8.71
2018-01-06T01:04:50.810Z,8.66
2018-01-06T01:05:50.840Z,8.68
2018-01-06T01:06:50.869Z,8.79
2018-01-06T01:07:50.899Z,8.66
2018-01-06T01:08:50.942Z,8.68
2018-01-06T01:09:50.958Z,8.71
2018-01-06T01:10:50.989Z,8.71
2018-01-06T01:11:51.030Z,8.65
2018-01-06T01:12:51.049Z,8.73
2018-01-06T01:13:51.080Z,8.66
2018-01-06T01:14:51.108Z,8.56
2018-01-06T01:15:51.139Z,8.66
2018-01-06T01:16:51.168Z,8.62
2018-01-06T01:17:51.200Z,8.62
2018-01-06T01:18:51.229Z,8.58
2018-01-06T01:19:51.258Z,8.68
2018-01-06T01:20:51.289Z,8.65
2018-01-06T01:21:51.319Z,8.62
2018-01-06T01:22:51.348Z,8.70
2018-01-06T01:23:51.379Z,8.61
2018-01-06T01:24:51.409Z,8.56
2018-01-06T01:25:51.439Z,8.52
2018-01-06T01:26:51.467Z,8.50
2018-01-06T01:27:51.499Z,8.53
2018-01-06T01:28:51.528Z,8.56
2018-01-06T01:29:51.560Z,8.56
2018-01-06T01:30:51.588Z,8.61
2018-01-06T01:31:51.618Z,8.59
2018-01-06T01:32:51.648Z,8.61
2018-01-06T01:33:51.678Z,8.53
2018-01-06T01:34:51.709Z,8.63
2018-01-06T01:35:51.738Z,8.66
2018-01-06T01:36:51.767Z,8.65
2018-01-06T01:37:51.798Z,8.66
2018-01-06T01:38:51.827Z,8.70
2018-01-06T01:39:51.857Z,8.63
2018-01-06T01:40:51.890Z,8.58
2018-01-06T01:41:51.919Z,8.59
2018-01-06T01:42:51.947Z,8.56
2018-01-06T01:43:51.978Z,8.50
2018-01-06T01:44:52.009Z,8.52
2018-01-06T01:45:52.039Z,8.59
2018-01-06T01:46:52.068Z,8.56
2018-01-06T01:47:52.098Z,8.53
2018-01-06T01:48:52.127Z,8.50
2018-01-06T01:49:52.157Z,8.52
2018-01-06T01:50:52.187Z,8.56
2018-01-06T01:51:52.217Z,8.47
2018-01-06T01:52:52.248Z,8.58
2018-01-06T01:53:52.278Z,8.53
2018-01-06T01:54:52.308Z,8.50
2018-01-06T01:55:52.339Z,8.53
2018-01-06T01:56:52.366Z,8.63
2018-01-06T01:57:52.398Z,8.58
2018-01-06T01:58:52.428Z,8.58
2018-01-06T01:59:52.457Z,8.56
2018-01-06T02:00:52.487Z,8.55
2018-01-06T02:01:52.520Z,8.55
2018-01-06T02:02:52.546Z,8.65
2018-01-06T02:03:52.578Z,8.58
2018-01-06T02:04:52.608Z,8.68
2018-01-06T02:05:52.638Z,8.66
2018-01-06T02:06:52.667Z,8.70
2018-01-06T02:07:52.698Z,8.70
2018-01-06T02:08:52.726Z,8.65
2018-01-06T02:09:52.759Z,8.63
2018-01-06T02:10:52.787Z,8.68
2018-01-06T02:11:52.817Z,8.61
2018-01-06T02:12:52.848Z,8.71
2018-01-06T02:13:52.877Z,8.66
2018-01-06T02:14:52.907Z,8.70
2018-01-06T02:15:52.940Z,8.65
2018-01-06T02:16:52.968Z,8.65
2018-01-06T02:17:52.999Z,8.66
2018-01-06T02:18:53.062Z,8.62
2018-01-06T02:19:53.058Z,8.62
2018-01-06T02:20:53.088Z,8.62
2018-01-06T02:21:53.118Z,8.66
2018-01-06T02:22:53.147Z,8.58
2018-01-06T02:23:53.177Z,8.65
2018-01-06T02:24:53.208Z,8.65
2018-01-06T02:25:53.238Z,8.61
2018-01-06T02:26:53.267Z,8.68
2018-01-06T02:27:53.299Z,8.71
2018-01-06T02:28:53.327Z,8.61
2018-01-06T02:29:53.359Z,8.62
2018-01-06T02:30:53.387Z,8.70
2018-01-06T02:31:53.417Z,8.71
2018-01-06T02:32:53.448Z,8.62
2018-01-06T02:33:53.477Z,8.63
2018-01-06T02:34:53.507Z,8.68
2018-01-06T02:35:53.536Z,8.68
2018-01-06T02:36:53.567Z,8.68
2018-01-06T02:37:53.596Z,8.63
2018-01-06T02:38:53.633Z,8.61
2018-01-06T02:39:53.658Z,8.56
2018-01-06T02:40:53.693Z,8.59
2018-01-06T02:41:53.716Z,8.68
2018-01-06T02:42:53.745Z,8.65
2018-01-06T02:43:53.775Z,8.53
2018-01-06T02:44:53.807Z,8.55
2018-01-06T02:45:53.837Z,8.56
2018-01-06T02:46:53.865Z,8.62
2018-01-06T02:47:53.894Z,8.61
2018-01-06T02:48:53.924Z,8.52
2018-01-06T02:49:53.954Z,8.47
2018-01-06T02:50:53.984Z,8.45
2018-01-06T02:51:54.014Z,8.50
2018-01-06T02:52:54.044Z,8.41
2018-01-06T02:53:54.076Z,8.47
2018-01-06T02:54:54.103Z,8.40
2018-01-06T02:55:54.132Z,8.50
2018-01-06T02:56:54.162Z,8.40
2018-01-06T02:57:54.193Z,8.34
2018-01-06T02:58:54.225Z,8.30
2018-01-06T02:59:54.252Z,8.22
2018-01-06T03:00:54.281Z,8.30
2018-01-06T03:01:54.311Z,8.23
2018-01-06T03:02:54.341Z,8.23
2018-01-06T03:03:54.371Z,8.22
2018-01-06T03:04:54.401Z,8.19
2018-01-06T03:05:54.430Z,8.22
2018-01-06T03:06:54.465Z,8.25
2018-01-06T03:07:54.490Z,8.19
2018-01-06T03:08:54.519Z,8.20
2018-01-06T03:09:54.549Z,8.22
2018-01-06T03:10:54.579Z,8.22
2018-01-06T03:11:54.608Z,8.08
2018-01-06T03:12:54.639Z,8.12
2018-01-06T03:13:54.667Z,8.10
2018-01-06T03:14:54.697Z,8.04
2018-01-06T03:15:54.728Z,8.00
2018-01-06T03:16:54.757Z,7.95
2018-01-06T03:17:54.788Z,7.98
2018-01-06T03:18:54.814Z,7.97
2018-01-06T03:19:54.845Z,8.00
2018-01-06T03:20:54.874Z,8.01
2018-01-06T03:21:54.905Z,8.04
2018-01-06T03:22:54.934Z,7.98
2018-01-06T03:23:54.964Z,7.95
2018-01-06T03:24:54.993Z,8.01
2018-01-06T03:25:55.023Z,7.95
2018-01-06T03:26:55.051Z,7.93
2018-01-06T03:27:55.082Z,7.93
2018-01-06T03:28:55.111Z,7.90
2018-01-06T03:30:01.408Z,7.89
2018-01-06T03:30:55.174Z,7.82
2018-01-06T03:31:55.201Z,7.85
2018-01-06T03:32:55.229Z,7.79
2018-01-06T03:33:55.261Z,7.79
2018-01-06T03:34:55.289Z,7.80
2018-01-06T03:35:55.317Z,7.79
2018-01-06T03:36:55.346Z,7.77
2018-01-06T03:37:55.377Z,7.79
2018-01-06T03:38:55.405Z,7.82
2018-01-06T03:39:55.435Z,7.75
2018-01-06T03:40:55.467Z,7.77
2018-01-06T03:41:55.494Z,7.68
2018-01-06T03:42:55.523Z,7.72
2018-01-06T03:43:55.551Z,7.75
2018-01-06T03:44:55.582Z,7.77
2018-01-06T03:45:55.613Z,7.86
2018-01-06T03:46:55.640Z,7.87
2018-01-06T03:47:55.670Z,7.83
2018-01-06T03:48:55.700Z,7.77
2018-01-06T03:49:55.727Z,7.74
2018-01-06T03:50:55.757Z,7.80
2018-01-06T03:51:55.786Z,7.77
2018-01-06T03:52:55.816Z,7.74
2018-01-06T03:53:55.846Z,7.74
2018-01-06T03:54:55.874Z,7.69
2018-01-06T03:55:55.903Z,7.83
2018-01-06T03:56:55.933Z,7.75
2018-01-06T03:57:55.961Z,7.69
2018-01-06T03:58:55.989Z,7.68
2018-01-06T03:59:56.021Z,7.71
2018-01-06T04:00:56.051Z,7.82
2018-01-06T04:01:56.079Z,7.79
2018-01-06T04:02:56.109Z,7.79
2018-01-06T04:03:56.135Z,7.82
2018-01-06T04:04:56.167Z,7.83
2018-01-06T04:05:56.196Z,7.93
2018-01-06T04:06:56.223Z,7.80
2018-01-06T04:07:56.252Z,7.79
2018-01-06T04:08:56.283Z,7.71
2018-01-06T04:09:56.314Z,7.77
2018-01-06T04:10:56.342Z,7.79
2018-01-06T04:11:56.370Z,7.79
2018-01-06T04:12:56.399Z,7.77
2018-01-06T04:13:56.428Z,7.71
2018-01-06T04:14:56.456Z,7.79
2018-01-06T04:15:56.492Z,7.87
2018-01-06T04:16:56.516Z,7.95
2018-01-06T04:17:56.549Z,7.98
2018-01-06T04:18:56.574Z,7.95
2018-01-06T04:19:56.602Z,8.02
2018-01-06T04:20:56.633Z,7.90
2018-01-06T04:21:56.662Z,7.98
2018-01-06T04:22:56.689Z,7.97
2018-01-06T04:23:56.718Z,7.92
2018-01-06T04:24:56.749Z,7.95
2018-01-06T04:25:56.780Z,7.92
2018-01-06T04:26:56.809Z,7.87
2018-01-06T04:27:56.836Z,7.82
2018-01-06T04:28:56.866Z,7.79
2018-01-06T04:29:56.895Z,7.75
2018-01-06T04:30:56.924Z,7.74
2018-01-06T04:31:56.953Z,7.69
2018-01-06T04:32:56.982Z,7.71
2018-01-06T04:33:57.012Z,7.75
2018-01-06T04:34:57.040Z,7.82
2018-01-06T04:35:57.069Z,7.87
2018-01-06T04:36:57.099Z,7.90
2018-01-06T04:37:57.127Z,7.86
2018-01-06T04:38:57.156Z,7.92
2018-01-06T04:39:57.185Z,7.77
2018-01-06T04:40:57.215Z,7.85
2018-01-06T04:41:57.243Z,7.79
2018-01-06T04:42:57.273Z,7.75
2018-01-06T04:43:57.303Z,7.79
2018-01-06T04:44:57.330Z,7.68
2018-01-06T04:45:57.360Z,7.72
2018-01-06T04:46:57.391Z,7.63
2018-01-06T04:47:57.421Z,7.67
2018-01-06T04:48:57.446Z,7.80
2018-01-06T04:49:57.474Z,7.67
2018-01-06T04:50:57.504Z,7.71
2018-01-06T04:51:57.533Z,7.79
2018-01-06T04:52:57.565Z,7.79
2018-01-06T04:53:57.592Z,7.90
2018-01-06T04:54:57.620Z,7.83
2018-01-06T04:55:57.648Z,7.90
2018-01-06T04:56:57.677Z,7.97
2018-01-06T04:57:57.709Z,7.93
2018-01-06T04:58:57.734Z,7.93
2018-01-06T04:59:57.765Z,7.98
2018-01-06T05:00:57.795Z,7.93
2018-01-06T05:01:57.824Z,7.92
2018-01-06T05:02:57.851Z,7.90
2018-01-06T05:03:57.881Z,7.87
2018-01-06T05:04:57.910Z,7.77
2018-01-06T05:05:57.939Z,7.80
2018-01-06T05:06:57.967Z,7.72
2018-01-06T05:07:57.998Z,7.71
2018-01-06T05:08:58.026Z,7.71
2018-01-06T05:09:58.057Z,7.75
2018-01-06T05:10:58.086Z,7.67
2018-01-06T05:11:58.112Z,7.83
2018-01-06T05:12:58.142Z,7.87
2018-01-06T05:13:58.172Z,7.82
2018-01-06T05:14:58.199Z,7.72
2018-01-06T05:15:58.229Z,7.82
2018-01-06T05:16:58.258Z,7.82
2018-01-06T05:17:58.288Z,7.74
2018-01-06T05:18:58.317Z,7.71
2018-01-06T05:19:58.345Z,7.74
2018-01-06T05:20:58.374Z,7.74
2018-01-06T05:21:58.403Z,7.79
2018-01-06T05:22:58.432Z,7.77
2018-01-06T05:23:58.461Z,7.72
2018-01-06T05:24:58.490Z,7.72
2018-01-06T05:25:58.520Z,7.69
2018-01-06T05:26:58.548Z,7.68
2018-01-06T05:27:58.578Z,7.74
2018-01-06T05:28:58.608Z,7.69
2018-01-06T05:29:58.636Z,7.72
2018-01-06T05:30:58.664Z,7.71
2018-01-06T05:31:58.692Z,7.72
2018-01-06T05:32:58.723Z,7.69
2018-01-06T05:33:58.752Z,7.69
2018-01-06T05:34:58.781Z,7.69
2018-01-06T05:35:58.813Z,7.69
2018-01-06T05:36:58.840Z,7.69
2018-01-06T05:37:58.868Z,7.71
2018-01-06T05:38:58.899Z,7.71
2018-01-06T05:39:58.927Z,7.79
2018-01-06T05:40:58.956Z,7.80
2018-01-06T05:41:58.986Z,7.72
2018-01-06T05:42:59.015Z,7.69
2018-01-06T05:43:59.044Z,7.82
2018-01-06T05:44:59.073Z,7.72
2018-01-06T05:45:59.101Z,7.80
2018-01-06T05:46:59.132Z,7.72
2018-01-06T05:47:59.161Z,7.75
2018-01-06T05:48:59.189Z,7.74
2018-01-06T05:49:59.218Z,7.79
2018-01-06T05:50:59.248Z,7.77
2018-01-06T05:51:59.277Z,7.83
2018-01-06T05:52:59.309Z,7.69
2018-01-06T05:53:59.335Z,7.69
2018-01-06T05:54:59.412Z,7.80
2018-01-06T05:55:59.393Z,7.72
2018-01-06T05:56:59.431Z,7.69
2018-01-06T05:57:59.453Z,7.75
2018-01-06T05:58:59.481Z,7.80
2018-01-06T05:59:59.511Z,7.82
2018-01-06T06:00:59.540Z,7.72
2018-01-06T06:01:59.569Z,7.69
2018-01-06T06:02:59.605Z,7.69
2018-01-06T06:03:59.627Z,7.69
2018-01-06T06:04:59.656Z,7.77
2018-01-06T06:05:59.687Z,7.71
2018-01-06T06:06:59.714Z,7.71
2018-01-06T06:07:59.749Z,7.82
2018-01-06T06:08:59.774Z,7.71
2018-01-06T06:09:59.805Z,7.72
2018-01-06T06:10:59.831Z,7.80
2018-01-06T06:11:59.861Z,7.82
2018-01-06T06:12:59.889Z,7.68
2018-01-06T06:13:59.921Z,7.69
2018-01-06T06:14:59.949Z,7.67
2018-01-06T06:15:59.978Z,7.68
2018-01-06T06:17:00.009Z,7.71
2018-01-06T06:18:00.040Z,7.80
2018-01-06T06:19:00.066Z,7.71
2018-01-06T06:20:00.097Z,7.72
2018-01-06T06:21:00.125Z,7.75
2018-01-06T06:22:00.159Z,7.75
2018-01-06T06:23:00.184Z,7.61
2018-01-06T06:24:00.213Z,7.64
2018-01-06T06:25:00.242Z,7.69
2018-01-06T06:26:00.270Z,7.74
2018-01-06T06:27:00.300Z,7.77
2018-01-06T06:28:00.328Z,7.75
2018-01-06T06:29:00.359Z,7.71
2018-01-06T06:30:00.388Z,7.69
2018-01-06T06:31:00.418Z,7.80
2018-01-06T06:32:00.447Z,7.71
2018-01-06T06:33:00.474Z,7.71
2018-01-06T06:34:00.506Z,7.82
2018-01-06T06:35:00.533Z,7.69
2018-01-06T06:36:00.564Z,7.75
2018-01-06T06:37:00.593Z,7.72
2018-01-06T06:38:00.621Z,7.77
2018-01-06T06:39:00.651Z,7.69
2018-01-06T06:40:00.680Z,7.69
2018-01-06T06:41:00.709Z,7.72
2018-01-06T06:42:00.739Z,7.75
2018-01-06T06:43:00.769Z,7.74
2018-01-06T06:44:00.797Z,7.74
2018-01-06T06:45:00.827Z,7.87
2018-01-06T06:46:00.856Z,7.79
2018-01-06T06:47:00.888Z,7.72
2018-01-06T06:48:00.914Z,7.79
2018-01-06T06:49:00.942Z,7.80
2018-01-06T06:50:00.973Z,7.80
2018-01-06T06:51:01.003Z,7.82
2018-01-06T06:52:01.031Z,7.80
2018-01-06T06:53:01.061Z,7.75
2018-01-06T06:54:01.089Z,7.79
2018-01-06T06:55:01.119Z,7.71
2018-01-06T06:56:01.148Z,7.83
2018-01-06T06:57:01.177Z,7.77
2018-01-06T06:58:01.206Z,7.69
2018-01-06T06:59:01.235Z,7.77
2018-01-06T07:00:01.265Z,7.74
2018-01-06T07:01:01.299Z,7.75
2018-01-06T07:02:01.325Z,7.80
2018-01-06T07:03:01.352Z,7.77
2018-01-06T07:04:01.382Z,7.79
2018-01-06T07:05:01.411Z,7.74
2018-01-06T07:06:01.441Z,7.77
2018-01-06T07:07:01.469Z,7.75
2018-01-06T07:08:01.499Z,7.80
2018-01-06T07:09:01.528Z,7.72
2018-01-06T07:10:01.558Z,7.80
2018-01-06T07:11:01.586Z,7.75
2018-01-06T07:12:01.616Z,7.74
2018-01-06T07:13:01.644Z,7.71
2018-01-06T07:14:01.676Z,7.75
2018-01-06T07:15:01.704Z,7.72
2018-01-06T07:16:01.732Z,7.69
2018-01-06T07:17:01.763Z,7.80
2018-01-06T07:18:01.793Z,7.74
2018-01-06T07:19:01.821Z,7.69
2018-01-06T07:20:01.849Z,7.82
2018-01-06T07:21:01.879Z,7.77
2018-01-06T07:22:01.912Z,7.72
2018-01-06T07:23:01.937Z,7.77
2018-01-06T07:24:01.968Z,7.71
2018-01-06T07:25:01.998Z,7.74
2018-01-06T07:26:02.026Z,7.83
2018-01-06T07:27:02.053Z,7.75
2018-01-06T07:28:02.084Z,7.79
2018-01-06T07:29:02.113Z,7.79
2018-01-06T07:30:02.143Z,7.80
2018-01-06T07:31:02.172Z,7.82
2018-01-06T07:32:02.202Z,7.90
2018-01-06T07:33:02.231Z,7.71
2018-01-06T07:34:02.260Z,7.74
2018-01-06T07:35:02.289Z,7.87
2018-01-06T07:36:02.318Z,7.83
2018-01-06T07:37:02.348Z,7.90
2018-01-06T07:38:02.378Z,7.97
2018-01-06T07:39:02.406Z,7.97
2018-01-06T07:40:02.436Z,7.98
2018-01-06T07:41:02.466Z,7.95
2018-01-06T07:42:02.495Z,7.90
2018-01-06T07:43:02.524Z,7.93
2018-01-06T07:44:02.552Z,7.97
2018-01-06T07:45:02.583Z,7.93
2018-01-06T07:46:02.611Z,7.97
2018-01-06T07:47:02.641Z,7.97
2018-01-06T07:48:02.673Z,7.93
2018-01-06T07:49:02.700Z,7.97
2018-01-06T07:50:02.730Z,7.89
2018-01-06T07:51:02.761Z,7.93
2018-01-06T07:52:02.788Z,8.00
2018-01-06T07:53:02.818Z,7.98
2018-01-06T07:54:02.846Z,7.98
2018-01-06T07:55:02.878Z,7.98
2018-01-06T07:56:02.906Z,7.95
2018-01-06T07:57:02.940Z,8.00
2018-01-06T07:58:02.964Z,7.98
2018-01-06T07:59:02.996Z,8.08
2018-01-06T08:00:03.023Z,8.07
2018-01-06T08:01:03.052Z,8.05
2018-01-06T08:02:03.083Z,8.11
2018-01-06T08:03:03.110Z,8.10
2018-01-06T08:04:03.141Z,8.20
2018-01-06T08:05:03.170Z,8.16
2018-01-06T08:06:03.200Z,8.23
2018-01-06T08:07:03.229Z,8.26
2018-01-06T08:08:03.257Z,8.26
2018-01-06T08:09:03.288Z,8.23
2018-01-06T08:10:03.318Z,8.18
2018-01-06T08:11:03.346Z,8.20
2018-01-06T08:12:03.375Z,8.30
2018-01-06T08:13:03.405Z,8.34
2018-01-06T08:14:03.436Z,8.34
2018-01-06T08:15:03.463Z,8.40
2018-01-06T08:16:03.494Z,8.37
2018-01-06T08:17:03.524Z,8.33
2018-01-06T08:18:03.554Z,8.38
2018-01-06T08:19:03.582Z,8.34
2018-01-06T08:20:03.615Z,8.34
2018-01-06T08:21:03.642Z,8.44
2018-01-06T08:22:03.673Z,8.43
2018-01-06T08:23:03.700Z,8.45
2018-01-06T08:24:03.731Z,8.36
2018-01-06T08:25:03.760Z,8.40
2018-01-06T08:26:03.789Z,8.47
2018-01-06T08:27:03.818Z,8.44
2018-01-06T08:28:03.850Z,8.44
2018-01-06T08:29:03.883Z,8.41
2018-01-06T08:30:03.911Z,8.47
2018-01-06T08:31:03.939Z,8.50
2018-01-06T08:32:03.969Z,8.55
2018-01-06T08:33:03.997Z,8.56
2018-01-06T08:34:04.029Z,8.59
2018-01-06T08:35:04.058Z,8.62
2018-01-06T08:36:04.088Z,8.61
2018-01-06T08:37:04.118Z,8.71
2018-01-06T08:38:04.148Z,8.71
2018-01-06T08:39:04.177Z,8.74
2018-01-06T08:40:04.220Z,8.77
2018-01-06T08:41:04.238Z,8.84
2018-01-06T08:42:04.269Z,8.91
2018-01-06T08:43:04.296Z,8.89
2018-01-06T08:44:04.327Z,8.99
2018-01-06T08:45:04.357Z,8.95
2018-01-06T08:46:04.386Z,9.01
2018-01-06T08:47:04.416Z,9.05
2018-01-06T08:48:04.448Z,8.98
2018-01-06T08:49:04.476Z,9.11
2018-01-06T08:50:04.507Z,9.14
2018-01-06T08:51:04.539Z,9.15
2018-01-06T08:52:04.569Z,9.18
2018-01-06T08:53:04.596Z,9.24
2018-01-06T08:54:04.626Z,9.15
2018-01-06T08:55:04.655Z,9.14
2018-01-06T08:56:04.685Z,8.99
2018-01-06T08:57:04.715Z,8.94
2018-01-06T08:58:04.745Z,8.98
2018-01-06T08:59:04.773Z,8.95
2018-01-06T09:00:04.806Z,9.10
2018-01-06T09:01:04.835Z,9.26
2018-01-06T09:02:04.864Z,9.29
2018-01-06T09:03:04.894Z,9.50
2018-01-06T09:04:04.924Z,9.69
2018-01-06T09:05:04.953Z,9.83
2018-01-06T09:06:04.984Z,9.93
2018-01-06T09:07:05.014Z,10.02
2018-01-06T09:08:05.044Z,10.09
2018-01-06T09:09:05.075Z,10.12
2018-01-06T09:10:05.105Z,9.91
2018-01-06T09:11:05.135Z,9.96
2018-01-06T09:12:05.165Z,10.08
2018-01-06T09:13:05.196Z,10.09
2018-01-06T09:14:05.225Z,10.20
2018-01-06T09:15:05.255Z,10.40
2018-01-06T09:16:05.289Z,10.41
2018-01-06T09:17:05.319Z,10.52
2018-01-06T09:18:05.350Z,10.48
2018-01-06T09:19:05.382Z,10.41
2018-01-06T09:20:05.412Z,10.25
2018-01-06T09:21:05.442Z,10.18
2018-01-06T09:22:05.474Z,10.23
2018-01-06T09:23:05.504Z,9.97
2018-01-06T09:24:05.541Z,10.07
2018-01-06T09:25:05.568Z,10.45
2018-01-06T09:26:05.598Z,11.58
2018-01-06T09:27:05.628Z,12.90
2018-01-06T09:28:05.661Z,13.64
2018-01-06T09:29:05.693Z,13.25
2018-01-06T09:30:05.723Z,13.12
2018-01-06T09:31:05.760Z,12.95
2018-01-06T09:32:05.788Z,12.90
2018-01-06T09:33:05.820Z,12.47
2018-01-06T09:34:05.851Z,12.12
2018-01-06T09:35:05.888Z,11.82
2018-01-06T09:36:05.917Z,11.67
2018-01-06T09:37:05.950Z,11.39
2018-01-06T09:38:05.980Z,11.27
2018-01-06T09:39:06.014Z,11.18
2018-01-06T09:40:06.047Z,11.09
2018-01-06T09:41:06.078Z,11.17
2018-01-06T09:42:06.109Z,11.11
2018-01-06T09:43:06.142Z,11.10
2018-01-06T09:44:06.174Z,11.09
2018-01-06T09:45:06.210Z,11.04
2018-01-06T09:46:06.239Z,11.00
2018-01-06T09:47:06.270Z,10.99
2018-01-06T09:48:06.301Z,11.00
2018-01-06T09:49:06.364Z,10.99
2018-01-06T09:50:06.366Z,11.09
2018-01-06T09:51:06.397Z,11.17
2018-01-06T09:52:06.430Z,11.15
2018-01-06T09:53:06.463Z,11.22
2018-01-06T09:54:06.493Z,11.24
2018-01-06T09:55:06.525Z,11.33
2018-01-06T09:56:06.558Z,11.33
2018-01-06T09:57:06.590Z,11.39
2018-01-06T09:58:06.622Z,11.43
2018-01-06T09:59:06.652Z,11.40
2018-01-06T10:00:06.684Z,11.46
2018-01-06T10:01:06.722Z,11.60
2018-01-06T10:02:06.748Z,11.60
2018-01-06T10:03:06.781Z,11.67
2018-01-06T10:04:06.814Z,11.80
2018-01-06T10:05:06.843Z,11.99
2018-01-06T10:06:06.913Z,12.23
2018-01-06T10:07:06.909Z,12.37
2018-01-06T10:08:06.940Z,13.00
2018-01-06T10:09:06.972Z,14.51
2018-01-06T10:10:07.005Z,16.38
2018-01-06T10:11:07.037Z,15.43
2018-01-06T10:12:07.069Z,14.39
2018-01-06T10:13:07.106Z,14.09
2018-01-06T10:14:07.137Z,15.57
2018-01-06T10:15:07.169Z,15.68
2018-01-06T10:16:07.203Z,15.69
2018-01-06T10:17:07.236Z,15.93
2018-01-06T10:18:07.271Z,16.09
2018-01-06T10:19:07.303Z,17.52
2018-01-06T10:20:07.339Z,18.84
2018-01-06T10:21:07.372Z,19.59
2018-01-06T10:22:07.406Z,19.44
2018-01-06T10:23:07.440Z,21.10
2018-01-06T10:24:07.476Z,22.21
2018-01-06T10:25:07.511Z,22.83
2018-01-06T10:26:07.548Z,23.48
2018-01-06T10:27:07.583Z,23.12
2018-01-06T10:28:07.619Z,23.10
2018-01-06T10:29:07.658Z,24.05
2018-01-06T10:30:07.695Z,25.20
2018-01-06T10:31:07.733Z,25.79
2018-01-06T10:32:07.772Z,26.47
2018-01-06T10:33:07.809Z,26.70
2018-01-06T10:34:07.849Z,27.14
2018-01-06T10:35:07.888Z,27.47
2018-01-06T10:36:07.929Z,25.13
2018-01-06T10:37:07.969Z,21.29
2018-01-06T10:38:08.015Z,19.25
2018-01-06T10:39:08.050Z,16.56
2018-01-06T10:40:08.090Z,15.56
2018-01-06T10:41:08.132Z,14.91
2018-01-06T10:42:08.173Z,14.83
2018-01-06T10:43:08.212Z,14.70
2018-01-06T10:44:08.252Z,14.46
2018-01-06T10:45:08.294Z,14.20
2018-01-06T10:46:08.333Z,13.89
2018-01-06T10:47:08.376Z,13.66
2018-01-06T10:48:08.410Z,13.64
2018-01-06T10:49:08.502Z,13.54
2018-01-06T10:50:08.490Z,13.59
2018-01-06T10:51:08.531Z,13.57
2018-01-06T10:52:08.570Z,13.77
2018-01-06T10:53:08.606Z,13.77
2018-01-06T10:54:08.643Z,13.97
2018-01-06T10:55:08.681Z,14.09
2018-01-06T10:56:08.719Z,14.24
2018-01-06T10:57:08.757Z,14.20
2018-01-06T10:58:08.801Z,14.09
2018-01-06T10:59:08.832Z,14.12
2018-01-06T11:00:08.870Z,13.92
2018-01-06T11:01:08.907Z,14.00
2018-01-06T11:02:08.947Z,14.00
2018-01-06T11:03:08.981Z,14.15
2018-01-06T11:04:09.018Z,14.96
2018-01-06T11:05:09.056Z,15.20
2018-01-06T11:06:09.094Z,15.21
2018-01-06T11:07:09.130Z,14.96
2018-01-06T11:08:09.167Z,14.88
2018-01-06T11:09:09.204Z,14.70
2018-01-06T11:10:09.242Z,14.88
2018-01-06T11:11:09.280Z,15.44
2018-01-06T11:12:09.315Z,15.43
2018-01-06T11:13:09.352Z,15.21
2018-01-06T11:14:09.388Z,15.38
2018-01-06T11:15:09.426Z,15.89
2018-01-06T11:16:09.462Z,15.68
2018-01-06T11:17:09.500Z,15.56
2018-01-06T11:18:09.535Z,15.50
2018-01-06T11:19:09.571Z,15.39
2018-01-06T11:20:09.609Z,15.27
2018-01-06T11:21:09.646Z,15.20
2018-01-06T11:22:09.682Z,15.35
2018-01-06T11:23:09.719Z,15.36
2018-01-06T11:24:09.754Z,15.51
2018-01-06T11:25:09.792Z,16.12
2018-01-06T11:26:09.829Z,16.91
2018-01-06T11:27:09.865Z,17.41
2018-01-06T11:28:09.902Z,18.45
2018-01-06T11:29:09.938Z,18.75
2018-01-06T11:30:09.976Z,19.16
2018-01-06T11:31:10.019Z,19.28
2018-01-06T11:32:10.050Z,20.61
2018-01-06T11:33:10.088Z,19.83
2018-01-06T11:34:10.127Z,20.16
2018-01-06T11:35:10.162Z,20.39
2018-01-06T11:36:10.202Z,20.13
2018-01-06T11:37:10.241Z,20.21
2018-01-06T11:38:10.279Z,20.31
2018-01-06T11:39:10.318Z,22.31
2018-01-06T11:40:10.357Z,23.40
2018-01-06T11:41:10.398Z,24.64
2018-01-06T11:42:10.436Z,24.57
2018-01-06T11:43:10.477Z,25.83
2018-01-06T11:44:10.518Z,25.33
2018-01-06T11:45:10.558Z,26.77
2018-01-06T11:46:10.599Z,26.51
2018-01-06T11:47:10.661Z,26.65
2018-01-06T11:48:10.686Z,27.29
2018-01-06T11:49:10.726Z,28.52
2018-01-06T11:50:10.772Z,29.14
2018-01-06T11:51:10.814Z,30.02
2018-01-06T11:52:10.860Z,30.82
2018-01-06T11:53:10.905Z,30.65
2018-01-06T11:54:10.949Z,31.14
2018-01-06T11:55:10.995Z,31.19
2018-01-06T11:56:11.040Z,31.06
2018-01-06T11:57:11.088Z,30.07
2018-01-06T11:58:11.136Z,28.74
2018-01-06T11:59:11.181Z,28.14
2018-01-06T12:00:11.227Z,27.29
2018-01-06T12:01:11.281Z,27.43
2018-01-06T12:02:11.327Z,26.72
2018-01-06T12:03:11.369Z,25.57
2018-01-06T12:04:11.418Z,26.28
2018-01-06T12:05:11.466Z,27.47
2018-01-06T12:06:11.513Z,26.87
2018-01-06T12:07:11.562Z,26.18
2018-01-06T12:08:11.611Z,26.02
2018-01-06T12:09:11.660Z,26.65
2018-01-06T12:10:11.708Z,27.18
2018-01-06T12:11:11.757Z,26.88
2018-01-06T12:12:11.805Z,26.62
2018-01-06T12:13:11.855Z,26.60
2018-01-06T12:14:11.905Z,26.54
2018-01-06T12:15:11.954Z,24.49
2018-01-06T12:16:12.003Z,22.82
2018-01-06T12:17:12.053Z,22.92
2018-01-06T12:18:12.103Z,22.18
2018-01-06T12:19:12.152Z,22.10
2018-01-06T12:20:12.200Z,20.95
2018-01-06T12:21:12.250Z,20.80
2018-01-06T12:22:12.299Z,19.99
2018-01-06T12:23:12.346Z,21.31
2018-01-06T12:24:12.396Z,20.29
2018-01-06T12:25:12.445Z,19.23
2018-01-06T12:26:12.495Z,18.30
2018-01-06T12:27:12.541Z,16.98
2018-01-06T12:28:12.588Z,16.96
2018-01-06T12:29:12.635Z,15.87
2018-01-06T12:30:12.682Z,15.69
2018-01-06T12:31:12.728Z,15.43
2018-01-06T12:32:12.774Z,15.47
2018-01-06T12:33:12.820Z,15.32
2018-01-06T12:34:12.866Z,15.41
2018-01-06T12:35:12.909Z,15.36
2018-01-06T12:36:12.954Z,16.15
2018-01-06T12:37:13.000Z,16.20
2018-01-06T12:38:13.043Z,16.28
2018-01-06T12:39:13.088Z,16.35
2018-01-06T12:40:13.130Z,16.23
2018-01-06T12:41:13.175Z,18.25
2018-01-06T12:42:13.218Z,19.08
2018-01-06T12:43:13.260Z,20.29
2018-01-06T12:44:13.303Z,20.79
2018-01-06T12:45:13.347Z,20.08
2018-01-06T12:46:13.390Z,18.07
2018-01-06T12:47:13.432Z,19.25
2018-01-06T12:48:13.475Z,21.46
2018-01-06T12:49:13.568Z,22.31
2018-01-06T12:50:13.564Z,22.52
2018-01-06T12:51:13.607Z,20.88
2018-01-06T12:52:13.650Z,19.07
2018-01-06T12:53:13.704Z,18.32
2018-01-06T12:54:13.740Z,17.49
2018-01-06T12:55:13.779Z,16.49
2018-01-06T12:56:13.823Z,16.91
2018-01-06T12:57:13.869Z,17.19
2018-01-06T12:58:13.908Z,17.64
2018-01-06T12:59:13.951Z,16.52
2018-01-06T13:00:13.995Z,15.76
2018-01-06T13:01:14.039Z,14.81
2018-01-06T13:02:14.081Z,14.51
2018-01-06T13:03:14.123Z,14.24
2018-01-06T13:04:14.166Z,13.88
2018-01-06T13:05:14.208Z,13.95
2018-01-06T13:06:14.250Z,13.54
2018-01-06T13:07:14.291Z,13.48
2018-01-06T13:08:14.333Z,13.32
2018-01-06T13:09:14.374Z,12.96
2018-01-06T13:10:14.415Z,13.14
2018-01-06T13:11:14.455Z,12.97